Orlando, Florida
Traffic Map
Current Weather Conditions
Orlando, Florida
Clear
Clear
32°
Feels Like: 34°
Wind Chill: 32° Ceiling: Unl
Heat Index: 34° Visibility: 10mi
Dew Point: 19° Wind: 14mph
Humidity: 46% Direction: 120° (ESE)
Pressure: 30.04in Gusts: 24mph
Raw Report DataKORL 282153Z 12012G21KT 10SM CLR 32/19 A3004 RMK AO2 SLP176 T03220194
Traffic Incident Summary
Active as of:
Severity:
Category:
InformationThere was an issue retrieving the traffic information for this location. Please try a different location or try again shortly.
Advertisements
Track Severe Weather on mobile